Time;durP1;ratioP1;P1;durP2;ratioP2;P2;SDS_P1;SDS_P2;PMS_P1;PMS_P2;Temp;Humidity;BMP_temperature;BMP_pressure;BME280_temperature;BME280_humidity;BME280_pressure;Samples;Min_cycle;Max_cycle;Signal;HPM_P1;HPM_P2
2023/09/16 00:01:11;;;;;;;11.63;8.80;;;;;;;16.58;67.85;101305.94;5043364;28;20380;-71
2023/09/16 00:03:37;;;;;;;17.05;10.75;;;;;;;16.50;69.74;101310.84;5039996;28;20220;-71
2023/09/16 00:06:04;;;;;;;12.25;9.55;;;;;;;16.35;68.98;101311.72;5050345;28;20124;-71
2023/09/16 00:08:29;;;;;;;17.80;9.85;;;;;;;16.28;69.68;101316.56;5038382;28;20493;-71
2023/09/16 00:10:54;;;;;;;12.45;9.90;;;;;;;16.32;70.48;101308.31;5047917;28;20029;-71
2023/09/16 00:13:19;;;;;;;13.93;10.18;;;;;;;16.43;69.89;101306.84;5041329;28;20055;-71
2023/09/16 00:15:45;;;;;;;12.38;10.52;;;;;;;16.48;69.75;101304.75;5043226;28;20021;-71
2023/09/16 00:18:11;;;;;;;13.65;9.95;;;;;;;16.44;69.41;101305.88;5052299;28;20033;-71
2023/09/16 00:20:36;;;;;;;12.00;10.77;;;;;;;16.41;70.16;101309.56;5037680;28;20036;-71
2023/09/16 00:23:04;;;;;;;15.00;10.10;;;;;;;16.39;70.06;101315.97;5035763;28;20025;-71
2023/09/16 00:25:30;;;;;;;12.10;10.90;;;;;;;16.32;70.91;101321.66;5039693;28;20036;-72
2023/09/16 00:27:55;;;;;;;9.80;8.77;;;;;;;16.29;70.48;101318.28;5042568;28;20052;-71
2023/09/16 00:30:20;;;;;;;9.73;8.70;;;;;;;16.28;70.82;101324.56;5052890;28;20252;-71
2023/09/16 00:32:46;;;;;;;13.88;9.27;;;;;;;16.18;70.99;101321.56;5018754;28;20042;-71
2023/09/16 00:35:11;;;;;;;12.18;10.40;;;;;;;16.09;71.25;101322.06;5049340;28;20075;-71
2023/09/16 00:37:37;;;;;;;11.70;10.23;;;;;;;16.00;71.45;101322.59;5039046;28;20476;-71
2023/09/16 00:40:05;;;;;;;12.85;10.40;;;;;;;15.86;71.95;101315.34;5025673;28;20111;-71
2023/09/16 00:42:31;;;;;;;12.63;11.15;;;;;;;15.56;73.34;101320.47;5032023;28;20044;-71
2023/09/16 00:44:56;;;;;;;14.32;11.13;;;;;;;15.59;73.27;101317.66;5037216;28;20031;-71
2023/09/16 00:47:21;;;;;;;12.35;10.20;;;;;;;15.66;73.48;101318.22;5042592;28;20495;-71
2023/09/16 00:49:47;;;;;;;14.00;11.75;;;;;;;15.76;72.34;101309.66;5046936;28;20029;-71
2023/09/16 00:52:13;;;;;;;13.13;10.02;;;;;;;15.87;71.30;101305.53;5037379;28;20316;-71
2023/09/16 00:54:38;;;;;;;10.70;9.60;;;;;;;15.93;70.92;101310.50;5045108;28;20036;-71
2023/09/16 00:57:09;;;;;;;12.07;9.60;;;;;;;16.03;70.83;101311.72;5035622;28;20029;-71
2023/09/16 00:59:35;;;;;;;11.35;9.38;;;;;;;15.96;71.15;101305.03;5037532;28;20044;-71
2023/09/16 01:02:01;;;;;;;11.20;9.85;;;;;;;15.96;71.40;101302.38;5042035;28;20035;-71
2023/09/16 01:04:26;;;;;;;11.77;9.70;;;;;;;16.02;71.54;101299.34;5050228;28;20024;-71
2023/09/16 01:06:51;;;;;;;11.20;9.60;;;;;;;16.01;70.63;101295.81;5042128;28;20400;-71
2023/09/16 01:09:20;;;;;;;10.80;9.07;;;;;;;16.02;71.21;101302.00;5036468;28;20033;-71
2023/09/16 01:11:46;;;;;;;10.68;8.70;;;;;;;16.04;71.65;101284.09;5037133;28;20115;-71
2023/09/16 01:14:11;;;;;;;10.82;9.43;;;;;;;16.03;69.23;101285.91;5048356;28;20033;-69
2023/09/16 01:16:45;;;;;;;10.63;9.60;;;;;;;16.04;69.97;101292.09;5037006;28;20033;-69
2023/09/16 01:19:34;;;;;;;12.68;9.63;;;;;;;16.04;70.66;101290.31;5041186;28;20117;-68
2023/09/16 01:22:01;;;;;;;11.15;9.55;;;;;;;16.01;69.77;101289.63;5040807;28;20033;-69
2023/09/16 01:24:26;;;;;;;12.20;9.30;;;;;;;15.98;69.62;101284.44;5035103;28;20037;-69
2023/09/16 01:26:51;;;;;;;9.10;8.13;;;;;;;16.03;68.99;101282.38;5035754;28;20542;-68
2023/09/16 01:29:19;;;;;;;13.50;9.18;;;;;;;16.00;69.31;101288.78;5045953;28;20024;-69
2023/09/16 01:31:45;;;;;;;10.70;8.60;;;;;;;15.83;71.40;101283.50;5040862;28;20028;-69
2023/09/16 01:34:25;;;;;;;9.48;8.50;;;;;;;15.78;69.71;101290.91;5036918;28;20033;-68
2023/09/16 01:36:54;;;;;;;10.20;9.05;;;;;;;15.70;70.65;101287.78;5037824;28;20033;-69
2023/09/16 01:39:22;;;;;;;10.60;8.60;;;;;;;15.68;70.02;101295.00;5040452;28;20707;-69
2023/09/16 01:41:50;;;;;;;13.88;10.65;;;;;;;15.57;71.28;101284.88;5046953;28;20104;-69
2023/09/16 01:44:16;;;;;;;12.40;9.57;;;;;;;15.51;71.78;101280.75;5031309;28;20468;-68
2023/09/16 01:46:41;;;;;;;10.13;8.88;;;;;;;15.52;70.84;101276.28;5045075;28;20025;-69
2023/09/16 01:49:06;;;;;;;9.65;8.48;;;;;;;15.56;70.79;101280.50;5032333;28;20087;-68
2023/09/16 01:51:32;;;;;;;10.63;7.88;;;;;;;15.55;70.08;101286.78;5039185;28;20025;-69
2023/09/16 01:53:57;;;;;;;9.07;8.15;;;;;;;15.53;70.53;101281.53;5035716;28;20041;-68
2023/09/16 01:56:22;;;;;;;8.80;7.90;;;;;;;15.54;70.09;101277.06;5036487;28;20029;-69
2023/09/16 01:58:47;;;;;;;15.15;8.90;;;;;;;15.59;71.11;101275.00;5033727;28;20025;-68
2023/09/16 02:01:14;;;;;;;12.05;9.20;;;;;;;15.53;72.56;101273.53;5031047;28;20017;-70
2023/09/16 02:03:39;;;;;;;10.80;8.73;;;;;;;15.50;71.99;101278.16;5035796;28;20563;-68
2023/09/16 02:06:06;;;;;;;10.00;8.98;;;;;;;15.59;69.77;101277.66;5050077;28;20033;-68
2023/09/16 02:08:31;;;;;;;9.43;8.48;;;;;;;15.59;72.15;101275.00;5048761;28;20076;-68
2023/09/16 02:10:56;;;;;;;10.30;8.45;;;;;;;15.41;73.81;101278.66;5050725;28;20029;-68
2023/09/16 02:13:22;;;;;;;9.82;8.82;;;;;;;15.39;73.42;101273.41;5038143;28;20036;-70
2023/09/16 02:15:47;;;;;;;9.63;8.73;;;;;;;15.30;71.50;101272.09;5045649;28;20079;-69
2023/09/16 02:18:13;;;;;;;12.57;8.27;;;;;;;15.27;71.31;101274.06;5046854;28;20504;-69
2023/09/16 02:20:38;;;;;;;9.45;7.85;;;;;;;15.34;71.33;101278.13;5053443;28;20475;-68
2023/09/16 02:23:03;;;;;;;6.55;5.95;;;;;;;15.45;73.43;101273.09;5039692;28;20029;-68
2023/09/16 02:25:29;;;;;;;7.18;6.07;;;;;;;15.47;71.12;101273.00;5045083;28;20412;-68
2023/09/16 02:27:54;;;;;;;6.70;6.18;;;;;;;15.46;71.15;101274.81;5033947;28;20040;-68
2023/09/16 02:30:19;;;;;;;7.75;6.53;;;;;;;15.44;71.03;101266.03;5048667;28;20464;-68
2023/09/16 02:32:45;;;;;;;7.60;6.88;;;;;;;15.30;71.46;101269.44;5046024;28;20481;-69
2023/09/16 02:35:10;;;;;;;8.00;7.18;;;;;;;15.39;70.94;101272.53;5046462;28;20064;-69
2023/09/16 02:37:35;;;;;;;7.90;7.15;;;;;;;15.41;70.56;101263.53;5048218;28;20081;-69
2023/09/16 02:40:02;;;;;;;8.88;7.45;;;;;;;15.42;71.11;101262.56;5039606;28;20040;-68
2023/09/16 02:42:27;;;;;;;9.93;7.63;;;;;;;15.44;71.29;101262.53;5033996;28;20029;-69
2023/09/16 02:44:53;;;;;;;8.77;7.88;;;;;;;15.40;71.66;101264.47;5023734;28;20099;-68
2023/09/16 02:47:20;;;;;;;10.32;7.88;;;;;;;15.25;72.54;101270.63;5048122;28;20476;-69
2023/09/16 02:49:45;;;;;;;9.20;7.47;;;;;;;15.28;71.80;101270.44;5045690;28;20097;-69
2023/09/16 02:52:11;;;;;;;9.02;8.13;;;;;;;15.34;71.69;101270.16;5040976;28;20369;-69
2023/09/16 02:54:36;;;;;;;9.77;8.80;;;;;;;15.37;71.79;101269.09;5036997;28;20036;-68
2023/09/16 02:57:01;;;;;;;14.00;10.55;;;;;;;15.17;73.47;101276.34;5040474;28;20017;-68
2023/09/16 02:59:27;;;;;;;13.02;11.13;;;;;;;14.87;74.63;101276.13;5047379;28;20037;-69
2023/09/16 03:01:52;;;;;;;8.63;7.75;;;;;;;14.65;73.44;101275.50;5044576;28;20024;-68
2023/09/16 03:04:17;;;;;;;8.75;7.53;;;;;;;14.71;73.48;101269.88;5041248;28;20125;-68
2023/09/16 03:06:42;;;;;;;8.38;7.57;;;;;;;14.81;73.45;101268.44;5047113;28;20090;-68
2023/09/16 03:09:08;;;;;;;8.00;7.10;;;;;;;14.97;72.42;101268.56;5049030;28;20017;-69
2023/09/16 03:11:36;;;;;;;10.57;7.25;;;;;;;14.96;74.08;101265.00;5045901;28;20060;-68
2023/09/16 03:14:02;;;;;;;11.98;8.02;;;;;;;14.98;74.04;101251.63;5046231;28;20041;-69
2023/09/16 03:16:27;;;;;;;8.57;7.50;;;;;;;14.96;73.76;101251.69;5036175;28;20033;-69
2023/09/16 03:18:52;;;;;;;7.80;6.97;;;;;;;14.99;73.40;101256.00;5037052;28;20037;-69
2023/09/16 03:21:19;;;;;;;7.35;6.75;;;;;;;14.99;73.25;101256.88;5040156;28;20033;-68
2023/09/16 03:23:47;;;;;;;7.60;6.80;;;;;;;14.98;72.92;101251.63;5046516;28;20032;-69
2023/09/16 03:26:15;;;;;;;8.82;7.90;;;;;;;14.94;73.85;101258.91;5032992;28;20127;-71
2023/09/16 03:28:42;;;;;;;9.90;7.07;;;;;;;14.94;73.47;101255.38;5041508;28;20024;-71
2023/09/16 03:31:08;;;;;;;8.07;7.22;;;;;;;14.98;72.05;101259.63;5040055;28;20104;-71
2023/09/16 03:33:33;;;;;;;8.13;7.32;;;;;;;14.94;72.30;101247.41;5043188;28;20096;-71
2023/09/16 03:35:59;;;;;;;9.63;7.60;;;;;;;14.91;72.93;101255.53;5052327;28;20128;-68
2023/09/16 03:38:29;;;;;;;8.10;7.05;;;;;;;14.94;72.72;101247.41;5055550;28;20443;-68
2023/09/16 03:40:55;;;;;;;8.75;7.85;;;;;;;14.97;73.27;101244.59;5039841;28;20060;-68
2023/09/16 03:43:20;;;;;;;8.40;7.60;;;;;;;14.95;72.85;101246.44;5042095;28;20083;-69
2023/09/16 03:45:46;;;;;;;8.77;7.80;;;;;;;14.95;72.69;101241.13;5042551;28;20028;-68
2023/09/16 03:48:11;;;;;;;10.07;8.65;;;;;;;14.96;72.84;101243.69;5043807;28;20009;-68
2023/09/16 03:50:36;;;;;;;10.05;8.60;;;;;;;14.89;73.90;101244.13;5047407;28;20162;-68
2023/09/16 03:53:02;;;;;;;10.43;9.25;;;;;;;14.75;74.00;101242.16;5052109;28;20037;-68
2023/09/16 03:55:27;;;;;;;12.32;8.73;;;;;;;14.67;74.77;101242.53;5043805;28;20245;-69
2023/09/16 03:57:52;;;;;;;12.18;9.45;;;;;;;14.72;75.34;101240.50;5043243;28;20040;-68
2023/09/16 04:00:18;;;;;;;10.10;8.07;;;;;;;14.80;74.40;101245.44;5038173;28;20469;-67
2023/09/16 04:02:43;;;;;;;9.15;7.50;;;;;;;14.85;74.36;101237.22;5045646;28;20037;-68
2023/09/16 04:05:09;;;;;;;9.02;8.23;;;;;;;14.87;74.52;101238.00;5042876;28;20032;-68
2023/09/16 04:07:35;;;;;;;9.50;8.32;;;;;;;14.74;74.16;101233.31;5042051;28;20064;-68
2023/09/16 04:10:00;;;;;;;8.98;7.97;;;;;;;14.85;72.86;101234.56;5047866;28;20603;-69
2023/09/16 04:12:26;;;;;;;7.30;6.60;;;;;;;14.84;72.95;101238.16;5044523;28;20155;-68
2023/09/16 04:14:51;;;;;;;6.43;5.82;;;;;;;14.84;72.38;101233.69;5040222;28;20745;-68
2023/09/16 04:17:16;;;;;;;6.82;6.22;;;;;;;14.83;72.38;101242.63;5038594;28;20075;-68
2023/09/16 04:19:41;;;;;;;8.25;6.80;;;;;;;14.76;71.88;101236.75;5035165;28;20033;-68
2023/09/16 04:22:07;;;;;;;7.20;6.50;;;;;;;14.79;72.02;101244.59;5033836;28;20034;-68
2023/09/16 04:24:32;;;;;;;7.75;7.07;;;;;;;14.73;72.65;101233.38;5044661;28;20457;-69
2023/09/16 04:26:57;;;;;;;8.65;7.72;;;;;;;14.75;72.58;101240.34;5046445;28;20032;-68
2023/09/16 04:29:22;;;;;;;10.25;9.18;;;;;;;14.63;74.07;101235.66;5047221;28;20550;-68
2023/09/16 04:31:48;;;;;;;10.60;9.55;;;;;;;14.63;74.04;101242.78;5047047;28;20024;-69
2023/09/16 04:34:14;;;;;;;11.18;8.88;;;;;;;14.62;73.70;101241.06;5039009;28;20523;-68
2023/09/16 04:36:40;;;;;;;9.32;8.38;;;;;;;14.59;73.72;101235.88;5039963;28;20550;-71
2023/09/16 04:39:05;;;;;;;12.05;9.27;;;;;;;14.63;73.88;101229.47;5027520;28;20021;-71
2023/09/16 04:41:31;;;;;;;9.68;8.43;;;;;;;14.65;74.95;101223.13;5022199;28;20473;-71
2023/09/16 04:43:57;;;;;;;9.88;8.80;;;;;;;14.66;72.92;101231.97;5042254;28;20033;-70
2023/09/16 04:46:22;;;;;;;9.95;8.27;;;;;;;14.68;72.43;101232.75;5043486;28;20033;-68
2023/09/16 04:48:48;;;;;;;10.82;8.15;;;;;;;14.69;74.52;101230.03;5042240;28;20023;-68
2023/09/16 04:51:13;;;;;;;8.95;8.07;;;;;;;14.69;74.61;101235.34;5039794;28;20032;-68
2023/09/16 04:53:39;;;;;;;8.25;7.32;;;;;;;14.62;72.61;101228.59;5049264;28;20485;-68
2023/09/16 04:56:10;;;;;;;9.55;8.32;;;;;;;14.58;72.61;101220.84;5037029;28;20032;-69
2023/09/16 04:58:36;;;;;;;9.68;8.15;;;;;;;14.57;73.14;101230.66;5037937;28;20036;-68
2023/09/16 05:01:05;;;;;;;8.57;7.47;;;;;;;14.49;73.72;101225.69;5044708;28;20033;-69
2023/09/16 05:03:31;;;;;;;8.38;7.57;;;;;;;14.51;73.95;101230.97;5031588;28;20028;-68
2023/09/16 05:05:56;;;;;;;8.02;7.22;;;;;;;14.39;73.84;101232.38;5022274;28;20037;-68
2023/09/16 05:08:21;;;;;;;9.13;8.20;;;;;;;14.35;74.15;101243.25;5049153;28;20052;-68
2023/09/16 05:10:54;;;;;;;9.40;8.40;;;;;;;14.41;74.69;101234.97;5038074;28;20499;-68
2023/09/16 05:13:20;;;;;;;11.32;8.95;;;;;;;14.33;74.81;101237.16;5048481;28;20402;-68
2023/09/16 05:15:49;;;;;;;11.07;9.20;;;;;;;14.26;75.26;101237.44;5046487;28;20028;-68
2023/09/16 05:18:16;;;;;;;8.85;7.95;;;;;;;14.33;74.47;101242.47;5043933;28;20492;-68
2023/09/16 05:20:41;;;;;;;9.52;8.57;;;;;;;14.39;73.99;101235.03;5047335;28;20497;-69
2023/09/16 05:23:06;;;;;;;10.68;8.48;;;;;;;14.41;74.97;101245.59;5035756;28;20112;-68
2023/09/16 05:25:32;;;;;;;9.55;8.55;;;;;;;14.42;74.06;101242.88;5040964;28;20028;-68
2023/09/16 05:27:57;;;;;;;13.13;8.07;;;;;;;14.51;75.61;101239.81;5036127;28;20033;-68
2023/09/16 05:30:22;;;;;;;10.55;8.82;;;;;;;14.55;74.83;101240.53;5044156;28;20032;-69
2023/09/16 05:32:47;;;;;;;8.85;7.95;;;;;;;14.58;75.81;101228.84;5046956;28;20024;-68
2023/09/16 05:35:13;;;;;;;10.55;8.80;;;;;;;14.64;74.55;101239.16;5039871;28;20091;-68
2023/09/16 05:37:38;;;;;;;9.30;8.07;;;;;;;14.67;74.08;101231.91;5033593;28;20032;-68
2023/09/16 05:40:04;;;;;;;9.43;8.50;;;;;;;14.71;73.86;101230.81;5037895;28;20021;-68
2023/09/16 05:42:29;;;;;;;12.63;9.90;;;;;;;14.71;74.27;101235.25;5053989;28;20207;-68
2023/09/16 05:44:55;;;;;;;10.85;8.63;;;;;;;14.72;75.13;101229.84;5039018;28;20036;-68
2023/09/16 05:47:20;;;;;;;10.27;8.68;;;;;;;14.74;74.33;101230.66;5046016;28;20484;-68
2023/09/16 05:49:45;;;;;;;9.50;8.18;;;;;;;14.74;73.92;101228.00;5050935;28;20025;-68
2023/09/16 05:52:10;;;;;;;8.77;7.97;;;;;;;14.78;73.27;101234.00;5041009;28;20029;-68
2023/09/16 05:54:36;;;;;;;8.70;7.80;;;;;;;14.78;73.77;101232.22;5049101;28;20100;-70
2023/09/16 05:57:01;;;;;;;10.00;8.07;;;;;;;14.78;73.99;101234.88;5044144;28;20028;-68
2023/09/16 05:59:27;;;;;;;8.98;8.07;;;;;;;14.68;74.35;101238.06;5046527;28;20216;-68
2023/09/16 06:01:53;;;;;;;9.50;7.95;;;;;;;14.66;74.93;101240.81;5049387;28;20515;-68
2023/09/16 06:04:18;;;;;;;9.43;8.48;;;;;;;14.73;74.95;101239.56;5047560;28;20025;-68
2023/09/16 06:06:43;;;;;;;9.50;8.50;;;;;;;14.81;74.37;101247.16;5042115;28;20055;-71
2023/09/16 06:09:09;;;;;;;10.63;9.52;;;;;;;14.64;75.41;101253.34;5045208;28;20023;-71
2023/09/16 06:11:34;;;;;;;10.68;9.05;;;;;;;14.65;75.83;101251.56;5048729;28;20031;-71
2023/09/16 06:13:59;;;;;;;10.85;9.50;;;;;;;14.75;75.74;101245.69;5042526;28;20496;-71
2023/09/16 06:16:24;;;;;;;12.63;10.70;;;;;;;14.90;77.10;101246.69;5035260;28;20057;-71
2023/09/16 06:18:50;;;;;;;12.90;10.18;;;;;;;14.96;77.23;101248.16;5044706;28;20024;-71
2023/09/16 06:21:15;;;;;;;11.88;10.55;;;;;;;15.01;76.67;101243.47;5045459;28;20037;-71
2023/09/16 06:23:41;;;;;;;13.35;11.25;;;;;;;15.09;76.99;101246.59;5040403;28;20028;-71
2023/09/16 06:26:06;;;;;;;16.20;13.05;;;;;;;15.12;77.77;101249.09;5035290;28;20473;-71
2023/09/16 06:28:33;;;;;;;13.55;11.68;;;;;;;15.15;76.84;101250.72;5051555;28;20032;-71
2023/09/16 06:30:58;;;;;;;15.98;12.85;;;;;;;15.23;77.09;101249.38;5044726;28;20024;-71
2023/09/16 06:33:23;;;;;;;15.27;13.65;;;;;;;15.36;76.60;101248.75;5053217;28;20039;-71
2023/09/16 06:35:49;;;;;;;17.00;13.93;;;;;;;15.38;77.45;101247.69;5025695;28;20318;-71
2023/09/16 06:38:14;;;;;;;17.02;14.70;;;;;;;15.44;77.53;101259.84;5055480;28;20468;-71
2023/09/16 06:40:39;;;;;;;18.70;15.38;;;;;;;15.47;78.46;101255.19;5044071;28;20035;-71
2023/09/16 06:43:04;;;;;;;17.75;14.98;;;;;;;15.49;78.27;101261.31;5045391;28;20446;-71
2023/09/16 06:45:30;;;;;;;19.15;15.93;;;;;;;15.55;79.32;101260.13;5043566;28;20033;-71
2023/09/16 06:47:56;;;;;;;19.38;15.07;;;;;;;15.66;77.67;101256.91;5042866;28;20040;-71
2023/09/16 06:50:21;;;;;;;16.58;14.70;;;;;;;15.81;77.92;101262.28;5054766;28;20530;-71
2023/09/16 06:52:46;;;;;;;20.23;16.25;;;;;;;15.93;77.87;101266.03;5048476;28;20029;-71
2023/09/16 06:55:12;;;;;;;18.98;16.77;;;;;;;16.05;77.87;101261.84;5053312;28;20058;-71
2023/09/16 06:57:37;;;;;;;20.92;16.77;;;;;;;16.18;77.88;101262.88;5040040;28;20033;-71
2023/09/16 07:00:03;;;;;;;17.42;15.13;;;;;;;16.32;77.44;101254.94;5048575;28;20028;-71
2023/09/16 07:02:28;;;;;;;18.08;14.60;;;;;;;16.45;77.33;101263.06;5034665;28;20103;-71
2023/09/16 07:04:55;;;;;;;21.83;17.00;;;;;;;16.54;77.56;101261.69;5051936;28;20028;-71
2023/09/16 07:07:23;;;;;;;19.83;16.52;;;;;;;16.75;77.43;101257.78;5038583;28;20053;-69
2023/09/16 07:09:50;;;;;;;17.17;14.48;;;;;;;16.94;78.37;101254.03;5044137;28;20098;-68
2023/09/16 07:12:15;;;;;;;16.95;14.10;;;;;;;17.05;76.77;101259.56;5046256;28;20730;-68
2023/09/16 07:14:40;;;;;;;16.60;12.20;;;;;;;17.20;76.35;101257.78;5036702;28;20041;-68
2023/09/16 07:17:06;;;;;;;17.10;15.30;;;;;;;17.25;76.05;101256.56;5043877;28;20345;-68
2023/09/16 07:19:33;;;;;;;14.68;12.60;;;;;;;17.34;75.66;101250.63;5039684;28;20026;-68
2023/09/16 07:21:59;;;;;;;16.95;13.60;;;;;;;17.46;75.77;101253.50;5034126;28;20028;-68
2023/09/16 07:24:24;;;;;;;15.57;11.85;;;;;;;17.58;75.18;101255.41;5045934;28;20383;-70
2023/09/16 07:26:49;;;;;;;19.23;13.32;;;;;;;17.59;76.72;101254.47;5043538;28;20025;-68
2023/09/16 07:29:15;;;;;;;16.98;15.07;;;;;;;17.81;76.70;101259.31;5040077;28;20025;-69
2023/09/16 07:31:40;;;;;;;16.15;13.80;;;;;;;17.95;75.97;101263.78;5025618;28;20036;-69
2023/09/16 07:34:05;;;;;;;18.05;13.93;;;;;;;18.08;74.97;101264.72;5045361;28;20519;-68
2023/09/16 07:36:31;;;;;;;16.92;14.93;;;;;;;18.17;75.33;101264.13;5044941;28;20034;-72
2023/09/16 07:38:57;;;;;;;17.50;13.30;;;;;;;18.11;74.95;101261.84;5044661;28;20446;-71
2023/09/16 07:41:23;;;;;;;20.90;14.63;;;;;;;18.29;74.85;101267.81;5049192;28;20033;-71
2023/09/16 07:43:48;;;;;;;16.60;14.25;;;;;;;18.41;73.49;101263.47;5045088;28;20017;-72
2023/09/16 07:46:14;;;;;;;16.45;14.13;;;;;;;18.66;73.50;101263.56;5040672;28;20169;-72
2023/09/16 07:48:39;;;;;;;16.73;13.50;;;;;;;18.90;72.72;101268.25;5056816;28;20060;-71
2023/09/16 07:51:04;;;;;;;16.38;14.68;;;;;;;19.08;72.51;101262.50;5036461;28;20040;-72
2023/09/16 07:53:29;;;;;;;18.02;13.27;;;;;;;19.26;71.73;101257.69;5041332;28;20053;-71
2023/09/16 07:55:55;;;;;;;19.23;14.35;;;;;;;19.40;71.54;101269.22;5045087;28;20028;-72
2023/09/16 07:58:20;;;;;;;15.43;13.23;;;;;;;19.73;70.54;101263.34;5051079;28;20123;-72
2023/09/16 08:00:45;;;;;;;16.05;12.70;;;;;;;19.99;69.30;101267.66;5042182;28;20060;-72
2023/09/16 08:03:11;;;;;;;14.40;12.93;;;;;;;20.61;66.99;101272.06;5044883;28;20035;-71
2023/09/16 08:05:36;;;;;;;15.18;13.18;;;;;;;20.92;66.16;101267.06;5046115;28;20031;-72
2023/09/16 08:08:02;;;;;;;14.45;12.57;;;;;;;21.12;66.17;101263.66;5050138;28;20049;-72
2023/09/16 08:10:27;;;;;;;13.40;11.32;;;;;;;21.37;64.28;101268.03;5053482;28;20099;-72
2023/09/16 08:12:53;;;;;;;16.40;10.75;;;;;;;21.74;63.88;101265.97;5037800;28;20031;-72
2023/09/16 08:15:21;;;;;;;14.85;11.90;;;;;;;22.04;62.64;101270.69;5056515;28;20024;-69
2023/09/16 08:17:46;;;;;;;15.23;12.02;;;;;;;22.28;62.09;101272.38;5031879;28;20021;-70
2023/09/16 08:20:12;;;;;;;14.57;10.90;;;;;;;22.37;61.42;101274.31;5041508;28;20415;-70
2023/09/16 08:22:38;;;;;;;13.05;11.15;;;;;;;22.60;60.40;101275.09;5051479;28;20055;-69
2023/09/16 08:25:03;;;;;;;13.52;10.48;;;;;;;22.68;59.72;101272.59;5039495;28;20040;-71
2023/09/16 08:27:29;;;;;;;14.13;10.82;;;;;;;22.94;59.31;101274.94;5043847;28;20025;-70
2023/09/16 08:29:54;;;;;;;12.60;10.55;;;;;;;23.21;58.28;101280.66;5034261;28;20024;-70
2023/09/16 08:32:22;;;;;;;13.02;11.02;;;;;;;23.49;56.58;101286.38;5042720;28;20112;-70
2023/09/16 08:34:48;;;;;;;11.55;10.02;;;;;;;23.81;58.51;101281.72;5043113;28;20033;-70
2023/09/16 08:37:13;;;;;;;16.17;11.40;;;;;;;24.07;56.51;101289.34;5046657;28;20035;-70
2023/09/16 08:39:38;;;;;;;13.82;10.95;;;;;;;24.11;57.07;101288.06;5041990;28;20037;-70
2023/09/16 08:42:49;;;;;;;12.90;11.50;;;;;;;24.71;57.28;101291.56;5051239;28;20684;-70
2023/09/16 08:45:19;;;;;;;13.70;9.93;;;;;;;25.02;53.48;101294.13;4999656;28;20332;-70
2023/09/16 08:47:52;;;;;;;15.18;10.57;;;;;;;25.33;52.23;101292.13;5012575;28;20425;-70
2023/09/16 08:50:21;;;;;;;11.88;10.52;;;;;;;25.45;52.73;101290.91;5030668;28;20045;-70
2023/09/16 08:52:48;;;;;;;11.98;10.50;;;;;;;25.65;51.69;101295.28;5043280;28;20029;-71
2023/09/16 08:55:13;;;;;;;12.23;10.25;;;;;;;26.18;50.37;101296.47;5040121;28;20376;-72
2023/09/16 08:57:47;;;;;;;12.10;9.55;;;;;;;26.38;49.77;101298.03;5038590;28;20033;-70
2023/09/16 09:00:14;;;;;;;12.02;10.15;;;;;;;26.58;49.15;101296.09;5043909;28;20033;-71
2023/09/16 09:02:40;;;;;;;14.18;10.40;;;;;;;26.70;48.70;101302.13;5038724;28;20032;-71
2023/09/16 09:05:06;;;;;;;14.30;10.90;;;;;;;26.98;47.68;101310.16;5034276;28;20028;-71
2023/09/16 09:07:35;;;;;;;10.77;8.88;;;;;;;27.30;48.06;101294.16;5038703;28;20067;-71
2023/09/16 09:10:01;;;;;;;11.05;9.07;;;;;;;27.67;46.59;101291.16;5040366;28;20056;-71
2023/09/16 09:12:27;;;;;;;10.77;8.20;;;;;;;27.78;44.78;101287.31;5042487;28;20017;-71
2023/09/16 09:14:53;;;;;;;9.98;9.02;;;;;;;27.86;45.04;101292.78;5034358;28;20108;-71
2023/09/16 09:17:19;;;;;;;10.88;9.13;;;;;;;28.05;44.05;101288.13;5036023;28;20032;-71
2023/09/16 09:19:45;;;;;;;11.00;8.90;;;;;;;28.45;43.81;101299.13;5038976;28;20029;-71
2023/09/16 09:22:11;;;;;;;13.18;9.65;;;;;;;28.41;42.15;101302.34;5031193;28;20053;-72
2023/09/16 09:24:36;;;;;;;10.35;8.57;;;;;;;29.09;41.81;101302.06;5037569;28;21724;-72
2023/09/16 09:27:02;;;;;;;10.07;8.95;;;;;;;30.22;39.60;101305.56;5031916;28;20025;-72
2023/09/16 09:29:27;;;;;;;10.07;8.15;;;;;;;31.20;38.27;101312.19;5040661;28;20024;-71
2023/09/16 09:31:53;;;;;;;10.05;8.38;;;;;;;31.48;37.24;101307.84;5036215;28;20033;-71
2023/09/16 09:34:19;;;;;;;10.32;8.98;;;;;;;31.85;36.66;101302.47;5043487;28;20075;-71
2023/09/16 09:36:46;;;;;;;9.43;8.43;;;;;;;31.65;36.26;101307.63;5045415;28;20479;-72
2023/09/16 09:39:11;;;;;;;13.07;8.73;;;;;;;31.86;36.76;101309.66;5036094;28;20026;-71
2023/09/16 09:41:46;;;;;;;10.70;8.90;;;;;;;32.28;36.73;101305.34;5053665;28;20028;-71
2023/09/16 09:44:15;;;;;;;9.05;7.45;;;;;;;33.08;34.98;101318.84;5035950;28;20327;-71
2023/09/16 09:46:40;;;;;;;9.45;8.23;;;;;;;33.55;33.00;101320.06;5031371;28;20029;-71
2023/09/16 09:49:06;;;;;;;8.68;7.78;;;;;;;33.83;32.49;101317.25;5035595;28;20024;-71
2023/09/16 09:51:32;;;;;;;11.73;8.82;;;;;;;33.51;32.51;101321.50;5037012;28;20037;-71
2023/09/16 09:53:58;;;;;;;10.02;9.02;;;;;;;33.44;33.08;101318.72;5043415;28;20094;-71
2023/09/16 09:56:23;;;;;;;11.07;8.63;;;;;;;33.66;32.41;101321.38;5032860;28;20469;-70
2023/09/16 09:58:50;;;;;;;11.20;8.45;;;;;;;33.78;32.76;101324.41;5051145;28;20029;-71
2023/09/16 10:01:15;;;;;;;8.98;8.07;;;;;;;33.63;32.24;101319.06;5042832;28;20490;-71
2023/09/16 10:03:47;;;;;;;10.07;8.15;;;;;;;34.29;32.72;101311.16;5029058;28;20033;-71
2023/09/16 10:06:17;;;;;;;10.52;7.93;;;;;;;35.01;31.44;101317.88;5037598;28;20390;-73
2023/09/16 10:08:43;;;;;;;10.48;9.15;;;;;;;35.85;30.53;101311.63;5017032;28;20408;-73
2023/09/16 10:11:09;;;;;;;10.15;7.60;;;;;;;36.42;29.29;101301.66;5036610;28;20025;-73
2023/09/16 10:13:34;;;;;;;11.25;9.10;;;;;;;36.10;29.38;101302.69;5036238;28;20064;-73
2023/09/16 10:16:01;;;;;;;9.35;8.45;;;;;;;35.82;28.41;101301.06;5039935;28;20056;-73
2023/09/16 10:18:28;;;;;;;9.98;8.35;;;;;;;35.67;28.15;101303.22;5036346;28;20902;-73
2023/09/16 10:20:54;;;;;;;9.30;7.57;;;;;;;36.38;29.05;101299.56;5031757;28;20392;-73
2023/09/16 10:23:20;;;;;;;8.55;7.45;;;;;;;37.21;28.34;101304.91;5034512;28;20080;-73
2023/09/16 10:25:46;;;;;;;10.60;8.98;;;;;;;37.69;26.96;101307.84;5049374;28;20033;-73
2023/09/16 10:28:12;;;;;;;10.13;9.05;;;;;;;37.99;26.26;101296.88;5046514;28;20033;-73
2023/09/16 10:30:38;;;;;;;9.45;8.63;;;;;;;38.05;26.73;101300.63;5038223;28;20082;-73
2023/09/16 10:33:05;;;;;;;10.52;8.15;;;;;;;37.59;26.35;101302.03;5035220;28;20465;-73
2023/09/16 10:35:38;;;;;;;12.13;10.63;;;;;;;37.18;27.06;101291.59;5050503;28;20669;-71
2023/09/16 10:38:06;;;;;;;12.13;9.55;;;;;;;36.97;27.89;101298.34;5051050;28;20086;-72
2023/09/16 10:40:32;;;;;;;12.77;10.85;;;;;;;36.25;28.00;101300.47;5041680;28;20031;-70
2023/09/16 10:43:00;;;;;;;10.88;9.52;;;;;;;35.76;29.41;101296.41;5041161;28;20029;-70
2023/09/16 10:45:26;;;;;;;10.20;8.65;;;;;;;35.87;29.46;101293.00;5040565;28;20095;-70
2023/09/16 10:47:52;;;;;;;9.75;8.75;;;;;;;35.74;30.46;101285.63;5043840;28;20029;-70
2023/09/16 10:50:20;;;;;;;9.43;8.52;;;;;;;36.05;30.23;101292.34;5035838;28;20017;-70
2023/09/16 10:52:53;;;;;;;11.05;9.90;;;;;;;36.14;30.11;101284.63;5039765;28;20047;-71
2023/09/16 10:55:38;;;;;;;9.98;8.98;;;;;;;36.40;30.36;101286.41;5027029;28;20090;-71
2023/09/16 10:58:09;;;;;;;10.23;9.23;;;;;;;35.88;29.93;101286.44;5043068;28;20021;-71
2023/09/16 11:00:47;;;;;;;8.65;7.55;;;;;;;35.70;30.67;101275.28;5037017;28;20416;-71
2023/09/16 11:03:14;;;;;;;10.07;7.70;;;;;;;35.68;30.27;101272.75;5037425;28;20028;-71
2023/09/16 11:05:40;;;;;;;10.90;9.77;;;;;;;35.59;30.11;101273.22;5034524;28;20476;-71
2023/09/16 11:08:06;;;;;;;9.40;8.50;;;;;;;35.92;29.68;101275.84;5045825;28;20048;-71
2023/09/16 11:10:31;;;;;;;9.80;8.80;;;;;;;35.71;30.53;101271.47;5040553;28;20021;-71
2023/09/16 11:12:57;;;;;;;10.05;9.05;;;;;;;35.87;29.89;101276.50;5037086;28;20451;-71